Time;durP1;ratioP1;P1;durP2;ratioP2;P2;SDS_P1;SDS_P2;PMS_P1;PMS_P2;Temp;Humidity;BMP_temperature;BMP_pressure;BME280_temperature;BME280_humidity;BME280_pressure;Samples;Min_cycle;Max_cycle;Signal;HPM_P1;HPM_P2
2023/10/02 00:06:16;;;;;;;8.00;4.97;;;;;;;20.06;94.74;101669.88;20863574;28;20056;-66
2023/10/02 00:16:18;;;;;;;8.00;4.97;;;;;;;20.03;94.58;101672.84;20798555;28;20081;-65
2023/10/02 00:26:20;;;;;;;8.45;4.95;;;;;;;19.99;94.43;101683.03;20815082;28;20049;-65
2023/10/02 00:36:22;;;;;;;7.82;5.00;;;;;;;19.96;94.53;101668.94;20828625;28;20171;-66
2023/10/02 00:46:24;;;;;;;8.27;5.20;;;;;;;19.93;94.66;101674.63;20809969;28;20124;-65
2023/10/02 00:56:28;;;;;;;9.32;5.30;;;;;;;19.89;94.70;101668.56;20808211;28;20409;-65
2023/10/02 01:06:34;;;;;;;9.02;5.65;;;;;;;19.92;94.93;101664.81;20830463;28;20053;-65
2023/10/02 01:16:36;;;;;;;10.52;5.80;;;;;;;19.81;94.96;101636.78;20822977;28;20561;-65
2023/10/02 01:26:42;;;;;;;8.05;5.50;;;;;;;19.91;94.96;101642.31;20834515;28;20425;-66
2023/10/02 01:36:44;;;;;;;9.57;6.03;;;;;;;19.93;94.86;101636.78;20816761;28;20577;-65
2023/10/02 01:46:49;;;;;;;9.90;6.10;;;;;;;19.93;94.86;101639.50;20870556;28;20056;-65
2023/10/02 01:56:52;;;;;;;9.82;5.15;;;;;;;19.85;94.70;101627.44;20843898;28;20132;-65
2023/10/02 02:06:56;;;;;;;9.55;5.93;;;;;;;19.93;94.53;101628.69;20820102;28;20414;-66
2023/10/02 02:16:59;;;;;;;10.17;5.90;;;;;;;19.94;94.50;101630.41;20818427;28;20056;-65
2023/10/02 02:27:04;;;;;;;9.88;5.82;;;;;;;19.92;94.65;101625.09;20828560;28;20500;-66
2023/10/02 02:37:06;;;;;;;9.60;6.18;;;;;;;19.93;94.71;101617.88;20828088;28;20060;-65
2023/10/02 02:47:09;;;;;;;9.77;6.03;;;;;;;19.93;94.30;101618.72;20838980;28;20054;-65
2023/10/02 02:57:12;;;;;;;8.73;5.80;;;;;;;19.89;94.44;101614.53;20827551;28;20122;-66
2023/10/02 03:07:36;;;;;;;7.97;4.95;;;;;;;19.85;94.61;101603.13;20838216;28;20045;-65
2023/10/02 03:17:41;;;;;;;8.90;5.45;;;;;;;19.78;94.55;101588.44;20869991;28;20052;-66
2023/10/02 03:27:44;;;;;;;9.93;5.70;;;;;;;19.82;94.42;101587.16;20799617;28;20132;-65
2023/10/02 03:37:51;;;;;;;10.65;6.20;;;;;;;19.79;94.46;101584.75;20832324;28;20052;-65
2023/10/02 03:48:02;;;;;;;9.98;5.72;;;;;;;19.79;94.66;101584.75;20832499;28;20162;-65
2023/10/02 03:58:04;;;;;;;7.70;5.35;;;;;;;19.77;94.53;101575.91;20820979;28;20057;-66
2023/10/02 04:08:36;;;;;;;9.80;5.72;;;;;;;19.74;94.48;101568.06;20836180;28;20103;-65
2023/10/02 04:18:47;;;;;;;9.50;6.10;;;;;;;19.73;94.44;101571.75;20839921;28;20424;-66
2023/10/02 04:28:59;;;;;;;8.80;5.18;;;;;;;19.70;94.46;101562.09;20829325;28;20045;-65
2023/10/02 04:39:04;;;;;;;9.52;5.50;;;;;;;19.68;94.21;101571.31;20836755;28;20057;-65
2023/10/02 04:49:07;;;;;;;9.57;5.90;;;;;;;19.67;94.30;101572.28;20833528;28;20050;-65
2023/10/02 04:59:09;;;;;;;9.18;6.20;;;;;;;19.64;94.26;101576.09;20803674;28;20421;-65
2023/10/02 05:09:19;;;;;;;9.85;5.45;;;;;;;19.64;94.21;101564.47;20853446;28;20745;-66
2023/10/02 05:19:54;;;;;;;8.40;5.70;;;;;;;19.61;94.06;101573.66;20840035;28;20053;-65
2023/10/02 05:29:43;;;;;;;9.25;5.57;;;;;;;19.60;93.96;101558.44;20845764;28;20049;-65
2023/10/02 05:39:46;;;;;;;7.82;5.45;;;;;;;19.59;93.93;101559.44;20815538;28;20061;-65
2023/10/02 05:49:47;;;;;;;8.27;5.40;;;;;;;19.57;93.85;101564.13;20831159;28;20049;-66
2023/10/02 05:59:54;;;;;;;9.50;5.75;;;;;;;19.55;94.00;101583.16;20801141;28;20049;-66
2023/10/02 06:10:00;;;;;;;9.43;5.75;;;;;;;19.61;93.40;101572.81;20810428;28;20052;-65
2023/10/02 06:20:09;;;;;;;9.60;5.63;;;;;;;19.63;93.37;101589.75;20828635;28;20126;-63
2023/10/02 06:30:19;;;;;;;10.00;5.53;;;;;;;19.63;93.30;101595.16;20829173;28;20103;-65
2023/10/02 06:40:23;;;;;;;10.02;5.82;;;;;;;19.82;93.51;101608.78;20798780;28;20048;-64
2023/10/02 06:50:30;;;;;;;7.57;4.82;;;;;;;19.95;93.37;101610.47;20795810;28;20071;-64
2023/10/02 07:10:53;;;;;;;9.32;5.93;;;;;;;20.15;93.48;101638.50;20786124;28;20508;-64
2023/10/02 07:20:55;;;;;;;8.93;5.55;;;;;;;20.26;92.55;101624.00;20838970;28;20134;-63
2023/10/02 07:30:59;;;;;;;9.05;5.80;;;;;;;20.50;91.48;101630.97;20833601;28;20505;-63
2023/10/02 07:41:06;;;;;;;9.07;5.90;;;;;;;20.62;90.78;101635.28;20826737;28;20504;-64
2023/10/02 07:51:11;;;;;;;12.00;6.40;;;;;;;20.84;90.09;101649.66;20799422;28;20046;-64
2023/10/02 08:01:13;;;;;;;10.57;5.90;;;;;;;21.09;89.19;101647.41;20822097;28;20049;-63
2023/10/02 08:11:15;;;;;;;8.98;5.38;;;;;;;21.20;88.43;101644.56;20816348;28;20064;-64
2023/10/02 08:21:17;;;;;;;9.50;5.60;;;;;;;21.33;87.94;101624.50;20812008;28;20490;-64
2023/10/02 08:31:18;;;;;;;8.05;5.80;;;;;;;21.42;87.80;101629.06;20826543;28;20060;-64
2023/10/02 08:41:20;;;;;;;11.18;6.18;;;;;;;21.54;87.85;101625.22;20818676;28;20053;-63
2023/10/02 08:51:30;;;;;;;9.77;6.50;;;;;;;21.67;87.68;101634.97;20815523;28;20056;-64
2023/10/02 09:01:33;;;;;;;10.02;5.95;;;;;;;21.61;88.06;101641.75;20816024;28;20070;-63
2023/10/02 09:11:35;;;;;;;11.37;6.33;;;;;;;21.73;87.92;101645.22;20812739;28;20780;-63
2023/10/02 09:21:39;;;;;;;9.05;5.70;;;;;;;21.79;87.82;101636.50;20793014;28;20058;-63
2023/10/02 09:31:41;;;;;;;9.48;5.53;;;;;;;21.80;88.07;101646.34;20796437;28;20053;-63
2023/10/02 09:41:46;;;;;;;9.35;5.60;;;;;;;21.82;88.08;101647.06;20796272;28;20118;-64
2023/10/02 09:52:15;;;;;;;9.07;5.47;;;;;;;21.81;88.18;101612.81;20788599;28;20053;-64
2023/10/02 10:12:54;;;;;;;10.07;6.57;;;;;;;21.87;88.54;101592.38;20808130;28;20049;-63
2023/10/02 10:22:56;;;;;;;9.40;6.20;;;;;;;21.86;88.82;101602.41;20813558;28;20045;-64
2023/10/02 10:43:18;;;;;;;9.32;5.65;;;;;;;21.88;89.18;101613.94;20829788;28;20048;-63
2023/10/02 10:53:26;;;;;;;8.85;5.78;;;;;;;21.91;89.52;101572.16;20790915;28;20056;-63
2023/10/02 11:03:30;;;;;;;7.65;5.20;;;;;;;21.98;89.39;101588.66;20798978;28;20452;-63
2023/10/02 11:14:11;;;;;;;8.13;5.20;;;;;;;22.06;89.20;101580.66;20828247;28;20144;-63
2023/10/02 11:24:20;;;;;;;8.65;5.60;;;;;;;22.08;89.10;101578.63;20794700;28;20052;-63
2023/10/02 11:34:22;;;;;;;9.73;5.95;;;;;;;22.13;88.74;101587.22;20797605;28;20065;-63
2023/10/02 11:44:34;;;;;;;8.50;5.32;;;;;;;22.15;88.50;101585.19;20802083;28;20053;-63
2023/10/02 11:54:42;;;;;;;7.20;4.60;;;;;;;22.15;88.78;101581.63;20810173;28;20395;-63
2023/10/02 12:04:44;;;;;;;9.88;5.50;;;;;;;22.15;89.00;101579.78;20788197;28;20080;-64
2023/10/02 12:14:46;;;;;;;9.18;5.57;;;;;;;22.16;88.82;101578.78;20836745;28;20576;-64
2023/10/02 12:24:48;;;;;;;10.43;5.82;;;;;;;22.17;88.79;101575.06;20800116;28;20572;-63
2023/10/02 12:34:49;;;;;;;7.22;5.32;;;;;;;22.20;89.07;101552.19;20820141;28;21007;-64
2023/10/02 12:44:53;;;;;;;6.13;4.35;;;;;;;22.21;89.04;101540.34;20807167;28;20052;-63
2023/10/02 12:54:55;;;;;;;8.30;4.72;;;;;;;22.23;89.14;101521.22;20816222;28;20084;-64
2023/10/02 13:05:01;;;;;;;7.93;5.07;;;;;;;22.25;88.98;101513.78;20808923;28;20053;-63
2023/10/02 13:15:03;;;;;;;7.82;4.85;;;;;;;22.25;88.99;101508.38;20812637;28;20049;-63
2023/10/02 13:25:05;;;;;;;7.85;4.88;;;;;;;22.25;89.34;101500.22;20806302;28;20128;-63
2023/10/02 13:35:09;;;;;;;7.75;5.00;;;;;;;22.23;89.62;101496.81;20843140;28;20065;-64
2023/10/02 13:45:11;;;;;;;8.50;5.78;;;;;;;22.23;90.12;101488.69;20831276;28;20604;-65
2023/10/02 13:55:31;;;;;;;8.70;5.15;;;;;;;22.23;90.27;101478.66;20789656;28;22155;-64
2023/10/02 14:05:35;;;;;;;8.25;5.43;;;;;;;22.22;90.43;101457.97;20790794;28;20452;-66
2023/10/02 14:15:37;;;;;;;7.70;4.88;;;;;;;22.23;90.93;101450.72;20798551;28;20501;-64
2023/10/02 14:25:42;;;;;;;9.65;5.82;;;;;;;22.23;90.71;101448.00;20826604;28;20501;-65
2023/10/02 14:35:45;;;;;;;7.80;4.78;;;;;;;22.12;90.85;101444.50;20817803;28;20045;-65
2023/10/02 14:45:57;;;;;;;6.90;4.80;;;;;;;22.16;91.99;101445.91;20815445;28;20055;-64
2023/10/02 14:56:03;;;;;;;7.32;5.18;;;;;;;22.14;92.30;101428.06;20802958;28;20045;-64
2023/10/02 15:06:05;;;;;;;8.00;5.57;;;;;;;22.14;92.16;101423.50;20818795;28;20050;-64
2023/10/02 15:16:11;;;;;;;6.85;4.70;;;;;;;22.15;92.11;101408.94;20832169;28;20056;-63
2023/10/02 15:26:16;;;;;;;7.72;5.57;;;;;;;22.13;94.85;101400.09;20817508;28;20057;-62
2023/10/02 15:36:18;;;;;;;8.43;5.43;;;;;;;22.20;94.37;101396.78;20807790;28;20060;-66
2023/10/02 15:46:20;;;;;;;8.95;5.60;;;;;;;22.23;95.21;101375.63;20835544;28;20056;-64
2023/10/02 15:56:23;;;;;;;18.23;9.15;;;;;;;22.28;97.44;101377.88;20828255;28;20080;-65
2023/10/02 16:06:27;;;;;;;17.80;8.75;;;;;;;22.37;99.34;101370.69;20816692;28;20056;-65
2023/10/02 16:16:29;;;;;;;13.57;7.47;;;;;;;22.36;99.26;101360.84;20802192;28;20045;-66
2023/10/02 16:26:33;;;;;;;10.18;6.30;;;;;;;22.41;98.71;101353.94;20807977;28;20052;-65
2023/10/02 16:36:35;;;;;;;11.50;6.32;;;;;;;22.27;98.26;101332.78;20820100;28;20506;-64
2023/10/02 16:46:37;;;;;;;9.50;5.90;;;;;;;22.15;97.77;101318.59;20852498;28;20077;-65
2023/10/02 16:56:39;;;;;;;8.43;5.30;;;;;;;22.00;97.43;101318.28;20794993;28;20087;-64
2023/10/02 17:06:42;;;;;;;9.27;5.20;;;;;;;21.91;97.62;101322.78;20827131;28;20061;-65
2023/10/02 17:16:43;;;;;;;10.95;5.80;;;;;;;21.78;98.74;101322.25;20782638;28;20049;-64
2023/10/02 17:26:47;;;;;;;8.48;5.18;;;;;;;21.74;98.82;101319.03;20812438;28;20487;-65
2023/10/02 17:36:51;;;;;;;10.45;5.80;;;;;;;21.78;99.08;101335.81;20841984;28;20043;-65
2023/10/02 17:46:52;;;;;;;7.80;4.30;;;;;;;21.75;99.62;101328.00;20818952;28;20505;-65
2023/10/02 17:56:54;;;;;;;7.88;5.03;;;;;;;21.69;99.66;101314.06;20833336;28;20140;-65
2023/10/02 18:06:57;;;;;;;8.43;4.53;;;;;;;21.64;99.85;101315.50;20809971;28;20146;-65
2023/10/02 18:16:59;;;;;;;7.68;4.72;;;;;;;21.54;99.98;101326.38;20811802;28;20060;-65
2023/10/02 18:27:01;;;;;;;7.90;4.20;;;;;;;21.47;100.00;101363.19;20805508;28;20056;-65
2023/10/02 18:37:03;;;;;;;6.85;4.32;;;;;;;21.38;100.00;101370.34;20816077;28;20421;-65
2023/10/02 18:47:04;;;;;;;7.07;4.38;;;;;;;21.31;100.00;101380.91;20803367;28;20053;-65
2023/10/02 18:57:06;;;;;;;8.73;4.95;;;;;;;21.26;100.00;101350.72;20797627;28;20494;-65
2023/10/02 19:07:08;;;;;;;7.63;4.30;;;;;;;21.20;100.00;101346.72;20811085;28;20045;-65
2023/10/02 19:17:11;;;;;;;5.93;4.10;;;;;;;21.16;100.00;101345.31;20815626;28;20404;-65
2023/10/02 19:27:14;;;;;;;5.93;4.05;;;;;;;21.11;100.00;101325.97;20823191;28;20402;-65
2023/10/02 19:37:16;;;;;;;7.18;4.80;;;;;;;21.06;100.00;101295.78;20819489;28;20083;-65
2023/10/02 19:47:17;;;;;;;6.40;4.30;;;;;;;21.00;100.00;101287.25;20857666;28;20049;-65
2023/10/02 19:57:19;;;;;;;6.68;4.22;;;;;;;20.95;100.00;101273.31;20839036;28;20409;-65
2023/10/02 20:07:22;;;;;;;8.20;4.75;;;;;;;20.91;100.00;101239.44;20825312;28;20056;-65
2023/10/02 20:17:24;;;;;;;6.68;4.22;;;;;;;20.87;100.00;101210.97;20850442;28;20554;-65
2023/10/02 20:27:25;;;;;;;5.63;4.18;;;;;;;20.83;100.00;101188.75;20859115;28;20053;-65
2023/10/02 20:37:33;;;;;;;6.53;4.40;;;;;;;20.80;100.00;101139.50;20827740;28;20138;-65
2023/10/02 20:47:34;;;;;;;6.90;4.53;;;;;;;20.77;100.00;101127.06;20818789;28;20371;-65
2023/10/02 20:57:38;;;;;;;7.60;5.00;;;;;;;20.73;100.00;101121.09;20804174;28;21484;-65
2023/10/02 21:07:40;;;;;;;7.32;4.93;;;;;;;20.69;100.00;101106.19;20846203;28;20064;-65
2023/10/02 21:17:42;;;;;;;8.02;5.40;;;;;;;20.67;100.00;101097.34;20860416;28;20045;-65
2023/10/02 21:27:44;;;;;;;8.35;4.57;;;;;;;20.63;100.00;101087.84;20810849;28;20186;-65
2023/10/02 21:37:46;;;;;;;7.90;5.15;;;;;;;20.61;100.00;101064.66;20808383;28;20064;-65
2023/10/02 21:47:48;;;;;;;9.32;6.05;;;;;;;20.58;100.00;101055.84;20807655;28;20202;-65
2023/10/02 21:57:50;;;;;;;7.07;4.68;;;;;;;20.57;100.00;101023.53;20820768;28;20049;-65
2023/10/02 22:07:54;;;;;;;6.80;4.63;;;;;;;20.55;100.00;100998.50;20824500;28;20103;-65
2023/10/02 22:17:56;;;;;;;9.02;5.07;;;;;;;20.52;100.00;100983.41;20834091;28;20049;-65
2023/10/02 22:28:00;;;;;;;7.85;5.03;;;;;;;20.50;100.00;100971.06;20810607;28;20543;-65
2023/10/02 22:38:03;;;;;;;8.68;5.40;;;;;;;20.48;100.00;100956.84;20791033;28;20053;-65
2023/10/02 22:48:08;;;;;;;9.50;6.45;;;;;;;20.46;100.00;100929.09;20798724;28;20712;-65
2023/10/02 22:58:10;;;;;;;;;;;;;;;20.46;100.00;100904.75;20811973;28;20118;-64
2023/10/02 23:08:12;;;;;;;10.95;5.97;;;;;;;20.38;100.00;100873.94;20801564;28;19964;-65
2023/10/02 23:18:14;;;;;;;10.75;6.20;;;;;;;20.37;100.00;100853.31;20804704;28;20045;-65
2023/10/02 23:28:16;;;;;;;10.10;6.15;;;;;;;20.37;100.00;100831.69;20806021;28;20493;-65
2023/10/02 23:38:18;;;;;;;9.70;5.70;;;;;;;20.35;100.00;100811.19;20842446;28;20084;-65
2023/10/02 23:48:22;;;;;;;12.15;7.00;;;;;;;20.33;100.00;100797.00;20785046;28;20103;-65
2023/10/02 23:58:25;;;;;;;;;;;;;;;20.32;100.00;100774.50;20815941;28;20052;-65
